Time;durP1;ratioP1;P1;durP2;ratioP2;P2;SDS_P1;SDS_P2;PMS_P1;PMS_P2;Temp;Humidity;BMP_temperature;BMP_pressure;BME280_temperature;BME280_humidity;BME280_pressure;Samples;Min_cycle;Max_cycle;Signal;HPM_P1;HPM_P2
2021/04/02 00:00:21;;;;;;;52.63;20.52;;;;;;;14.27;52.65;100566.75;5061057;28;20037;-80
2021/04/02 00:03:24;;;;;;;45.67;19.60;;;;;;;14.26;53.60;100567.06;5078819;28;20044;-81
2021/04/02 00:06:11;;;;;;;47.67;17.73;;;;;;;14.27;52.11;100565.94;5077793;28;20040;-80
2021/04/02 00:08:56;;;;;;;49.05;17.95;;;;;;;14.16;52.31;100573.81;5072464;28;20044;-80
2021/04/02 00:11:41;;;;;;;33.47;13.88;;;;;;;13.88;52.86;100565.47;5077925;28;20493;-79
2021/04/02 00:14:26;;;;;;;45.53;18.77;;;;;;;13.68;53.69;100567.16;5075432;28;20044;-80
2021/04/02 00:17:12;;;;;;;49.13;19.30;;;;;;;13.58;53.71;100556.69;5072769;28;20500;-80
2021/04/02 00:19:57;;;;;;;37.10;13.65;;;;;;;13.55;54.13;100551.09;5079024;28;20029;-80
2021/04/02 00:22:43;;;;;;;48.28;20.70;;;;;;;13.47;53.95;100550.03;5080372;28;20041;-81
2021/04/02 00:25:27;;;;;;;44.75;17.98;;;;;;;13.02;55.56;100546.47;5087659;28;20040;-79
2021/04/02 00:28:13;;;;;;;;;;;;;;;12.93;55.85;100534.84;5083791;28;20036;-81
2021/04/02 00:30:58;;;;;;;43.50;20.08;;;;;;;12.85;56.54;100536.50;5080959;28;19913;-81
2021/04/02 00:33:43;;;;;;;56.00;19.98;;;;;;;12.94;56.20;100534.50;5078312;28;20040;-80
2021/04/02 00:36:27;;;;;;;35.92;15.30;;;;;;;12.94;56.17;100536.44;5077899;28;20044;-80
2021/04/02 00:39:13;;;;;;;37.65;13.88;;;;;;;12.98;56.14;100537.34;5078092;28;20033;-80
2021/04/02 00:41:58;;;;;;;45.90;20.45;;;;;;;12.78;56.74;100530.78;5076705;28;20036;-79
2021/04/02 00:44:43;;;;;;;;;;;;;;;12.81;56.54;100528.19;5081853;28;20036;-79
2021/04/02 00:47:28;;;;;;;55.80;17.73;;;;;;;12.70;56.98;100527.00;5078304;28;19920;-80
2021/04/02 00:50:19;;;;;;;45.20;19.05;;;;;;;12.61;57.52;100534.47;5077984;28;20435;-80
2021/04/02 00:53:05;;;;;;;43.67;19.83;;;;;;;12.72;57.64;100523.94;5078107;28;20044;-81
2021/04/02 00:55:51;;;;;;;41.00;19.40;;;;;;;12.71;57.58;100530.53;5078206;28;20036;-82
2021/04/02 00:58:37;;;;;;;39.10;17.95;;;;;;;12.71;57.18;100533.25;5079058;28;20040;-81
2021/04/02 01:01:22;;;;;;;43.50;19.65;;;;;;;12.84;56.64;100533.00;5078748;28;20036;-81
2021/04/02 01:04:08;;;;;;;59.25;23.00;;;;;;;12.78;57.11;100526.13;5076990;28;20048;-81
2021/04/02 01:06:53;;;;;;;30.30;15.05;;;;;;;12.61;57.43;100531.72;5077969;28;20032;-81
2021/04/02 01:09:38;;;;;;;;;;;;;;;12.81;57.32;100530.13;5075463;28;20048;-81
2021/04/02 01:12:23;;;;;;;48.35;20.25;;;;;;;12.92;56.99;100525.84;5063263;28;19912;-81
2021/04/02 01:15:20;;;;;;;31.17;14.07;;;;;;;12.87;56.99;100531.50;5067057;28;20037;-81
2021/04/02 01:18:30;;;;;;;57.30;19.75;;;;;;;13.03;57.22;100523.50;5078536;28;20516;-81
2021/04/02 01:21:36;;;;;;;49.85;19.52;;;;;;;12.89;57.09;100514.81;5067906;28;20033;-81
2021/04/02 01:24:21;;;;;;;;;;;;;;;12.73;57.70;100522.81;5064158;28;20032;-81
2021/04/02 01:27:54;;;;;;;52.45;20.45;;;;;;;12.66;57.73;100515.16;5075936;28;19912;-80
2021/04/02 01:30:42;;;;;;;48.20;19.23;;;;;;;12.86;57.14;100508.88;5026348;28;20033;-81
2021/04/02 01:33:29;;;;;;;46.60;20.80;;;;;;;13.00;57.13;100496.88;5074394;28;20044;-80
2021/04/02 01:36:15;;;;;;;38.08;19.20;;;;;;;13.07;56.40;100494.38;5064063;28;20415;-81
2021/04/02 01:39:00;;;;;;;45.97;20.08;;;;;;;13.35;55.33;100506.34;5073180;28;20044;-81
2021/04/02 01:41:50;;;;;;;42.15;19.45;;;;;;;13.19;55.57;100508.13;5078468;28;20020;-80
2021/04/02 01:44:38;;;;;;;46.92;19.80;;;;;;;13.24;55.13;100499.72;5075624;28;20039;-81
2021/04/02 01:47:25;;;;;;;50.35;19.92;;;;;;;13.39;54.90;100506.44;5075128;28;20037;-81
2021/04/02 01:50:14;;;;;;;41.33;18.85;;;;;;;13.29;55.89;100499.50;5059603;28;20048;-81
2021/04/02 01:53:00;;;;;;;36.60;17.80;;;;;;;13.33;55.55;100505.88;5079986;28;20040;-81
2021/04/02 01:55:48;;;;;;;39.42;19.35;;;;;;;13.39;55.91;100499.06;5077135;28;20044;-81
2021/04/02 01:58:38;;;;;;;41.85;20.50;;;;;;;13.41;55.16;100496.00;5066049;28;20071;-80
2021/04/02 02:01:27;;;;;;;42.05;18.90;;;;;;;13.60;53.80;100494.31;5077617;28;20036;-80
2021/04/02 02:04:12;;;;;;;48.08;19.25;;;;;;;13.36;55.95;100502.44;5077981;28;20041;-80
2021/04/02 02:07:03;;;;;;;49.58;19.98;;;;;;;12.66;56.31;100498.78;5060020;28;20041;-80
2021/04/02 02:10:17;;;;;;;39.95;19.35;;;;;;;12.35;57.90;100503.84;5077207;28;20111;-80
2021/04/02 02:13:06;;;;;;;45.42;19.02;;;;;;;12.34;58.25;100500.31;5058089;28;20040;-80
2021/04/02 02:15:58;;;;;;;59.17;20.85;;;;;;;12.56;57.45;100499.19;5061781;28;20032;-80
2021/04/02 02:18:51;;;;;;;52.70;22.55;;;;;;;12.89;56.79;100501.97;5059806;28;20036;-80
2021/04/02 02:21:40;;;;;;;53.03;21.85;;;;;;;12.36;58.46;100505.44;5080087;28;20041;-80
2021/04/02 02:24:28;;;;;;;62.08;20.05;;;;;;;12.47;58.46;100500.41;5061673;28;20408;-80
2021/04/02 02:27:13;;;;;;;45.63;20.52;;;;;;;12.59;56.84;100500.47;5046815;28;20484;-80
2021/04/02 02:29:59;;;;;;;47.85;20.90;;;;;;;12.74;56.16;100500.66;5065047;28;20504;-80
2021/04/02 02:32:44;;;;;;;28.70;14.82;;;;;;;12.64;57.21;100498.34;5060953;28;20040;-81
2021/04/02 02:35:30;;;;;;;42.10;19.70;;;;;;;12.63;57.50;100494.00;5059182;28;20033;-81
2021/04/02 02:38:16;;;;;;;30.05;14.50;;;;;;;12.36;58.56;100489.09;5075061;28;20044;-81
2021/04/02 02:41:04;;;;;;;50.65;21.48;;;;;;;12.47;58.39;100486.75;5063225;28;20501;-81
2021/04/02 02:43:50;;;;;;;38.13;18.20;;;;;;;12.62;57.97;100492.41;5060440;28;20040;-81
2021/04/02 02:46:38;;;;;;;38.05;19.55;;;;;;;12.57;57.83;100492.63;5060344;28;20448;-81
2021/04/02 02:49:25;;;;;;;42.95;19.88;;;;;;;12.60;58.17;100481.03;5081100;28;20036;-82
2021/04/02 02:52:16;;;;;;;44.53;20.48;;;;;;;12.68;57.39;100485.63;5058993;28;20037;-82
2021/04/02 02:55:04;;;;;;;55.85;25.08;;;;;;;12.86;59.91;100480.78;5065201;28;20032;-81
2021/04/02 02:57:50;;;;;;;46.65;22.80;;;;;;;13.00;58.00;100485.97;5075772;28;20040;-80
2021/04/02 03:00:43;;;;;;;37.88;20.52;;;;;;;12.86;59.14;100487.03;5091946;28;20040;-80
2021/04/02 03:03:28;;;;;;;53.70;20.95;;;;;;;12.68;57.71;100491.09;5062969;28;20223;-80
2021/04/02 03:06:22;;;;;;;50.38;20.65;;;;;;;12.59;59.42;100498.53;5077643;28;20044;-80
2021/04/02 03:09:11;;;;;;;46.63;21.27;;;;;;;12.48;58.45;100489.16;5068355;28;20041;-80
2021/04/02 03:11:58;;;;;;;47.33;23.40;;;;;;;12.27;59.42;100485.63;5078841;28;20032;-79
2021/04/02 03:14:46;;;;;;;46.22;21.45;;;;;;;11.88;60.64;100484.13;5075717;28;20040;-80
2021/04/02 03:17:37;;;;;;;58.00;21.70;;;;;;;11.79;61.43;100486.09;5073612;28;20048;-80
2021/04/02 03:20:25;;;;;;;45.25;22.77;;;;;;;12.07;60.67;100486.41;5077997;28;20045;-80
2021/04/02 03:23:12;;;;;;;48.03;22.00;;;;;;;12.19;59.97;100481.81;5060261;28;20037;-80
2021/04/02 03:25:59;;;;;;;54.72;21.85;;;;;;;12.46;59.08;100487.88;5073319;28;20045;-80
2021/04/02 03:28:45;;;;;;;45.15;21.38;;;;;;;12.47;60.08;100484.84;5078336;28;20045;-80
2021/04/02 03:31:34;;;;;;;46.88;21.67;;;;;;;12.47;59.65;100479.38;5058520;28;20430;-80
2021/04/02 03:34:21;;;;;;;47.20;20.38;;;;;;;12.71;58.66;100481.41;5057198;28;20044;-80
2021/04/02 03:37:11;;;;;;;45.58;20.70;;;;;;;12.51;58.40;100479.50;5073652;28;20036;-81
2021/04/02 03:40:04;;;;;;;48.17;22.02;;;;;;;12.32;58.79;100483.50;5073915;28;20041;-80
2021/04/02 03:42:53;;;;;;;43.88;21.98;;;;;;;12.48;58.09;100481.00;5068130;28;20029;-80
2021/04/02 03:45:41;;;;;;;45.95;21.77;;;;;;;12.43;58.11;100486.63;5061199;28;20040;-81
2021/04/02 03:48:28;;;;;;;40.80;20.63;;;;;;;12.32;58.65;100488.97;5074632;28;20044;-81
2021/04/02 03:51:19;;;;;;;58.38;22.30;;;;;;;12.55;57.72;100478.50;5062096;28;20056;-81
2021/04/02 03:54:06;;;;;;;36.63;20.38;;;;;;;12.44;58.02;100482.78;5062471;28;20053;-81
2021/04/02 03:56:56;;;;;;;43.60;21.33;;;;;;;12.19;58.56;100489.22;5062206;28;20036;-81
2021/04/02 03:59:51;;;;;;;40.13;21.38;;;;;;;12.19;59.76;100483.78;5077950;28;20028;-81
2021/04/02 04:02:38;;;;;;;37.88;20.00;;;;;;;12.19;59.56;100500.13;5079185;28;20420;-81
2021/04/02 04:05:24;;;;;;;39.97;19.70;;;;;;;12.31;60.29;100497.47;5078205;28;20040;-81
2021/04/02 04:08:12;;;;;;;43.65;20.30;;;;;;;12.37;59.61;100499.66;5066403;28;20523;-81
2021/04/02 04:11:01;;;;;;;45.10;21.73;;;;;;;12.23;58.49;100498.34;5063566;28;20040;-81
2021/04/02 04:13:50;;;;;;;48.83;21.35;;;;;;;12.07;58.91;100498.13;5062667;28;20037;-81
2021/04/02 04:16:38;;;;;;;51.20;22.10;;;;;;;12.17;59.40;100491.47;5082787;28;20032;-79
2021/04/02 04:19:27;;;;;;;51.10;23.70;;;;;;;11.91;59.95;100491.63;5084416;28;20036;-81
2021/04/02 04:22:17;;;;;;;53.60;22.92;;;;;;;11.78;60.09;100500.84;5076722;28;20492;-81
2021/04/02 04:25:04;;;;;;;51.60;22.33;;;;;;;11.67;60.26;100499.59;5064647;28;20415;-82
2021/04/02 04:27:49;;;;;;;52.45;22.73;;;;;;;11.85;59.81;100488.31;5076027;28;20037;-81
2021/04/02 04:30:35;;;;;;;53.88;23.33;;;;;;;11.91;60.39;100497.09;5074388;28;20068;-81
2021/04/02 04:33:24;;;;;;;53.83;22.27;;;;;;;11.86;60.79;100500.00;5078984;28;20496;-80
2021/04/02 04:36:10;;;;;;;56.00;24.17;;;;;;;11.90;60.25;100504.47;5077625;28;20037;-81
2021/04/02 04:38:55;;;;;;;52.08;23.40;;;;;;;11.86;60.26;100508.97;5073207;28;20036;-80
2021/04/02 04:41:43;;;;;;;57.28;25.40;;;;;;;11.68;61.08;100509.38;5061634;28;20044;-81
2021/04/02 04:44:29;;;;;;;56.75;23.83;;;;;;;11.86;60.01;100517.16;5077932;28;20032;-81
2021/04/02 04:47:14;;;;;;;51.03;22.58;;;;;;;11.51;61.59;100512.94;5076102;28;20500;-80
2021/04/02 04:50:00;;;;;;;55.17;24.77;;;;;;;11.53;61.09;100513.41;5076890;28;20044;-80
2021/04/02 04:52:53;;;;;;;47.00;20.27;;;;;;;11.63;61.25;100513.03;5080218;28;20040;-81
2021/04/02 04:55:40;;;;;;;60.78;23.08;;;;;;;11.64;61.33;100514.66;5074684;28;20040;-80
2021/04/02 04:58:29;;;;;;;51.85;22.23;;;;;;;11.67;61.18;100514.00;5079692;28;20044;-80
2021/04/02 05:01:15;;;;;;;58.03;24.75;;;;;;;11.75;62.37;100518.63;5078498;28;20036;-80
2021/04/02 05:04:02;;;;;;;51.03;24.75;;;;;;;11.74;61.98;100527.94;5074829;28;20048;-80
2021/04/02 05:06:51;;;;;;;59.38;24.13;;;;;;;11.70;61.34;100516.06;5074075;28;20048;-80
2021/04/02 05:09:37;;;;;;;46.85;22.70;;;;;;;11.67;61.13;100516.72;5076964;28;20033;-80
2021/04/02 05:12:24;;;;;;;64.50;23.05;;;;;;;11.43;61.74;100514.56;5079585;28;20032;-79
2021/04/02 05:15:10;;;;;;;93.80;27.02;;;;;;;11.44;61.73;100521.63;5079022;28;20041;-80
2021/04/02 05:17:56;;;;;;;54.70;22.92;;;;;;;11.34;62.06;100521.16;5077588;28;20037;-80
2021/04/02 05:20:46;;;;;;;49.20;22.00;;;;;;;11.57;60.98;100525.25;5075179;28;20032;-80
2021/04/02 05:23:31;;;;;;;54.08;23.58;;;;;;;11.66;60.12;100530.66;5074097;28;20033;-79
2021/04/02 05:26:16;;;;;;;44.80;18.63;;;;;;;11.74;60.10;100524.41;5078007;28;20416;-79
2021/04/02 05:29:01;;;;;;;;;;;;;;;11.98;59.59;100527.34;5074968;28;20032;-79
2021/04/02 05:31:46;;;;;;;54.08;21.17;;;;;;;12.15;58.82;100526.44;5077964;28;19916;-80
2021/04/02 05:34:31;;;;;;;40.22;17.73;;;;;;;12.03;59.00;100524.44;5085497;28;20400;-80
2021/04/02 05:37:16;;;;;;;49.92;17.67;;;;;;;12.13;58.75;100526.78;5074483;28;20037;-81
2021/04/02 05:40:01;;;;;;;46.55;21.38;;;;;;;12.09;58.79;100525.81;5076439;28;20041;-81
2021/04/02 05:43:15;;;;;;;42.33;18.65;;;;;;;12.67;56.92;100522.22;5072136;28;20041;-81
2021/04/02 05:46:02;;;;;;;46.08;21.52;;;;;;;12.68;57.27;100523.03;5072773;28;20416;-81
2021/04/02 05:48:54;;;;;;;51.38;21.50;;;;;;;13.19;55.13;100527.22;5077220;28;20032;-81
2021/04/02 05:51:39;;;;;;;59.35;22.02;;;;;;;13.42;54.38;100533.06;5072678;28;20040;-81
2021/04/02 05:54:30;;;;;;;51.28;20.92;;;;;;;13.88;52.98;100527.19;5072630;28;20488;-81
2021/04/02 05:57:16;;;;;;;47.33;22.65;;;;;;;14.54;51.30;100537.88;5072287;28;20048;-81
2021/04/02 06:00:03;;;;;;;70.75;22.15;;;;;;;15.24;49.44;100533.59;5066516;28;20479;-81
2021/04/02 06:02:57;;;;;;;;;;;;;;;15.56;48.46;100530.94;5066119;28;20041;-81
2021/04/02 06:05:42;;;;;;;55.40;17.70;;;;;;;16.23;47.35;100535.31;5110134;22;19920;-81
2021/04/02 06:08:27;;;;;;;55.47;18.10;;;;;;;16.66;45.88;100537.84;5096243;28;20044;-80
2021/04/02 06:11:14;;;;;;;55.15;19.10;;;;;;;17.20;44.78;100538.94;5095264;28;20040;-80
2021/04/02 06:13:59;;;;;;;72.70;23.48;;;;;;;17.83;43.04;100534.56;5094182;28;20039;-79
2021/04/02 06:16:51;;;;;;;42.17;17.17;;;;;;;18.22;41.93;100542.66;5095956;28;20079;-81
2021/04/02 06:19:36;;;;;;;74.30;22.83;;;;;;;18.63;40.89;100544.44;5095512;28;20028;-79
2021/04/02 06:22:21;;;;;;;65.72;22.88;;;;;;;18.78;41.16;100551.72;5094164;28;20284;-82
2021/04/02 06:25:06;;;;;;;68.32;20.20;;;;;;;19.89;39.26;100548.97;5078663;28;20044;-81
2021/04/02 06:27:53;;;;;;;69.07;21.08;;;;;;;21.00;36.89;100545.69;5094253;28;20036;-82
2021/04/02 06:30:42;;;;;;;64.10;20.33;;;;;;;21.13;35.98;100552.44;5092400;28;20028;-80
2021/04/02 06:33:37;;;;;;;75.93;20.83;;;;;;;21.55;35.12;100543.47;5095136;28;20404;-81
2021/04/02 06:36:28;;;;;;;52.70;19.25;;;;;;;21.94;34.40;100549.03;5094913;28;20036;-80
2021/04/02 06:39:12;;;;;;;63.90;21.90;;;;;;;22.35;33.96;100551.41;5091400;28;20040;-78
2021/04/02 06:42:03;;;;;;;;;;;;;;;22.46;33.65;100561.25;5096365;28;20031;-78
2021/04/02 06:44:58;;;;;;;59.53;20.45;;;;;;;22.97;33.08;100563.50;5095485;28;19912;-80
2021/04/02 06:47:44;;;;;;;62.75;22.40;;;;;;;22.81;33.19;100557.59;5097024;28;20455;-83
2021/04/02 06:50:29;;;;;;;61.53;21.98;;;;;;;23.37;32.38;100566.84;5090504;28;20521;-82
2021/04/02 06:53:14;;;;;;;;;;;;;;;24.91;29.96;100556.78;5095795;28;20519;-85
2021/04/02 06:56:01;;;;;;;57.17;22.98;;;;;;;24.85;29.92;100563.97;5094173;28;19919;-83
2021/04/02 06:58:47;;;;;;;54.85;21.77;;;;;;;21.93;35.05;100552.19;5092722;28;20036;-83
2021/04/02 07:01:33;;;;;;;59.95;23.95;;;;;;;22.80;32.94;100556.06;5090317;28;20040;-84
2021/04/02 07:04:23;;;;;;;54.30;22.70;;;;;;;23.75;31.31;100557.50;5090701;28;20044;-83
2021/04/02 07:07:11;;;;;;;48.85;22.08;;;;;;;23.79;30.50;100549.94;5095990;28;20032;-85
2021/04/02 07:09:58;;;;;;;57.00;22.50;;;;;;;22.88;32.76;100557.59;5091991;28;20039;-83
2021/04/02 07:12:45;;;;;;;54.63;24.40;;;;;;;23.84;30.57;100552.28;5097387;28;20040;-85
2021/04/02 07:15:33;;;;;;;53.15;24.52;;;;;;;25.01;29.11;100553.88;5091626;28;20044;-84
2021/04/02 07:18:19;;;;;;;54.83;23.33;;;;;;;24.72;29.58;100549.84;5092089;28;20032;-84
2021/04/02 07:21:05;;;;;;;48.97;24.50;;;;;;;25.66;27.93;100550.97;5096592;28;20032;-83
2021/04/02 07:23:51;;;;;;;56.83;28.05;;;;;;;25.20;29.40;100557.97;5092766;28;20032;-83
2021/04/02 07:26:36;;;;;;;47.70;28.17;;;;;;;25.88;27.83;100563.38;5091589;28;20036;-83
2021/04/02 07:29:24;;;;;;;54.90;27.35;;;;;;;26.51;27.09;100557.91;5095318;28;20043;-84
2021/04/02 07:32:10;;;;;;;55.10;28.65;;;;;;;26.54;27.56;100559.81;5095337;28;20028;-84
2021/04/02 07:34:55;;;;;;;142.65;31.17;;;;;;;26.73;27.14;100559.03;5093267;28;20044;-82
2021/04/02 07:37:40;;;;;;;53.20;30.20;;;;;;;26.87;27.14;100544.81;5096384;28;20035;-82
2021/04/02 07:40:33;;;;;;;65.88;35.00;;;;;;;26.24;28.90;100558.78;5094909;28;20499;-83
2021/04/02 07:43:19;;;;;;;65.80;34.28;;;;;;;26.86;28.23;100565.56;5091774;28;20032;-82
2021/04/02 07:46:16;;;;;;;57.95;36.15;;;;;;;26.84;28.56;100562.41;5091454;28;20044;-83
2021/04/02 07:49:07;;;;;;;66.50;36.13;;;;;;;27.48;27.64;100563.84;5092928;28;20044;-80
2021/04/02 07:51:52;;;;;;;61.67;35.78;;;;;;;27.90;26.82;100567.66;5092370;28;20040;-81
2021/04/02 07:54:41;;;;;;;500.00;63.33;;;;;;;27.28;34.82;100563.13;5096695;28;20035;-84
2021/04/02 07:57:27;;;;;;;61.22;34.38;;;;;;;27.22;33.25;100571.22;5093573;28;20044;-85
2021/04/02 08:00:12;;;;;;;52.80;33.47;;;;;;;26.72;34.71;100568.63;5089973;28;20028;-85
2021/04/02 08:03:06;;;;;;;67.78;34.22;;;;;;;26.03;35.85;100572.28;5094685;28;20495;-84
2021/04/02 08:05:54;;;;;;;59.28;29.83;;;;;;;25.54;35.35;100560.69;5089957;28;20036;-84
2021/04/02 08:08:48;;;;;;;53.88;33.47;;;;;;;25.10;35.73;100556.13;5089591;28;20048;-82
2021/04/02 08:11:37;;;;;;;59.58;33.92;;;;;;;24.95;34.75;100557.53;5093527;28;20408;-84
2021/04/02 08:14:36;;;;;;;52.25;30.85;;;;;;;24.62;35.53;100559.88;5076918;28;20048;-82
2021/04/02 08:17:28;;;;;;;56.38;28.15;;;;;;;24.31;36.77;100557.44;5081530;28;20400;-84
2021/04/02 08:20:19;;;;;;;56.53;30.23;;;;;;;24.08;37.18;100555.22;5080988;28;20407;-85
2021/04/02 08:23:04;;;;;;;59.70;28.75;;;;;;;23.88;37.37;100553.03;5098758;28;20036;-85
2021/04/02 08:25:56;;;;;;;55.42;29.63;;;;;;;23.81;37.07;100555.88;5092408;28;20040;-81
2021/04/02 08:28:41;;;;;;;55.78;30.02;;;;;;;23.64;37.90;100553.22;5093753;28;20032;-81
2021/04/02 08:31:27;;;;;;;60.38;29.90;;;;;;;23.46;37.92;100547.81;5091336;28;20043;-83
2021/04/02 08:34:14;;;;;;;44.65;25.45;;;;;;;23.18;39.12;100550.72;5080401;28;20040;-82
2021/04/02 08:37:02;;;;;;;62.42;28.05;;;;;;;23.07;39.14;100541.66;5095960;28;20044;-83
2021/04/02 08:39:48;;;;;;;57.95;29.25;;;;;;;22.94;40.08;100536.56;5091917;28;20048;-81
2021/04/02 08:42:34;;;;;;;45.92;23.17;;;;;;;22.66;41.43;100544.97;5101701;28;20492;-82
2021/04/02 08:45:19;;;;;;;47.58;24.40;;;;;;;22.52;40.14;100545.81;5089686;28;20036;-83
2021/04/02 08:48:05;;;;;;;41.63;24.33;;;;;;;22.59;38.98;100536.69;5099689;28;20044;-83
2021/04/02 08:50:51;;;;;;;45.30;23.10;;;;;;;22.71;37.84;100549.31;5097014;28;20044;-84
2021/04/02 08:53:40;;;;;;;44.15;21.15;;;;;;;22.67;37.78;100537.44;5099736;28;20503;-83
2021/04/02 08:56:29;;;;;;;51.03;22.70;;;;;;;22.70;37.25;100540.22;5101700;28;20427;-84
2021/04/02 08:59:15;;;;;;;41.22;20.80;;;;;;;22.70;39.04;100537.44;5078260;28;20048;-81
2021/04/02 09:02:00;;;;;;;136.52;28.33;;;;;;;22.57;38.91;100536.28;5099083;28;20040;-84
2021/04/02 09:04:47;;;;;;;780.63;67.18;;;;;;;22.40;40.58;100531.59;5095019;28;20040;-82
2021/04/02 09:07:40;;;;;;;93.50;26.48;;;;;;;24.04;31.41;100524.72;5095323;28;20500;-80
2021/04/02 09:10:26;;;;;;;47.35;21.73;;;;;;;24.16;35.26;100515.09;5100547;28;20044;-81
2021/04/02 09:13:11;;;;;;;53.38;23.88;;;;;;;23.71;33.20;100515.09;5098812;28;20040;-80
2021/04/02 09:15:56;;;;;;;58.58;24.83;;;;;;;22.77;33.41;100517.22;5099068;28;20048;-81
2021/04/02 09:18:49;;;;;;;62.17;24.25;;;;;;;25.39;30.77;100515.56;5096442;28;20040;-80
2021/04/02 09:21:37;;;;;;;48.45;23.23;;;;;;;25.12;30.81;100520.34;5092792;28;20031;-83
2021/04/02 09:24:23;;;;;;;55.28;23.75;;;;;;;25.54;29.37;100522.50;5096289;28;20036;-80
2021/04/02 09:27:10;;;;;;;51.28;22.70;;;;;;;25.19;29.85;100516.69;5083150;28;20048;-80
2021/04/02 09:29:56;;;;;;;59.83;24.13;;;;;;;25.25;29.52;100503.84;5095616;28;20098;-82
2021/04/02 09:32:41;;;;;;;54.20;24.92;;;;;;;26.34;28.44;100513.19;5102565;28;20500;-82
2021/04/02 09:35:26;;;;;;;59.50;24.88;;;;;;;26.55;27.73;100506.41;5094080;28;20040;-81
2021/04/02 09:38:12;;;;;;;51.22;24.98;;;;;;;28.34;25.53;100516.56;5088460;28;20044;-82
2021/04/02 09:40:59;;;;;;;63.28;25.75;;;;;;;29.54;23.42;100506.63;5099287;28;20412;-81
2021/04/02 09:43:50;;;;;;;53.00;23.75;;;;;;;27.44;26.17;100510.84;5097946;28;20036;-82
2021/04/02 09:46:41;;;;;;;468.40;50.20;;;;;;;28.27;25.18;100510.41;5095031;28;20036;-80
2021/04/02 09:49:27;;;;;;;60.92;25.88;;;;;;;32.62;19.09;100503.03;5095906;28;20492;-83
2021/04/02 09:52:11;;;;;;;66.57;25.67;;;;;;;31.93;19.81;100504.94;5095108;28;20040;-79
2021/04/02 09:54:56;;;;;;;52.30;24.85;;;;;;;33.38;18.20;100504.72;5084468;28;20044;-82
2021/04/02 09:57:42;;;;;;;58.53;25.60;;;;;;;35.00;16.42;100503.13;5103819;28;20032;-82
2021/04/02 10:00:27;;;;;;;63.03;25.38;;;;;;;37.18;14.25;100513.06;5094937;28;20044;-83
2021/04/02 10:03:16;;;;;;;50.03;25.70;;;;;;;36.25;14.64;100508.81;5093072;28;20396;-81
2021/04/02 10:06:01;;;;;;;54.45;25.23;;;;;;;37.93;13.25;100503.22;5094445;28;20040;-81
2021/04/02 10:08:46;;;;;;;48.33;24.60;;;;;;;36.14;14.58;100505.84;5093855;28;20040;-81
2021/04/02 10:11:34;;;;;;;58.65;26.55;;;;;;;36.14;15.19;100500.19;5077195;28;20036;-81
2021/04/02 10:14:19;;;;;;;53.00;26.27;;;;;;;35.60;15.30;100484.78;5097879;28;20040;-82
2021/04/02 10:17:09;;;;;;;53.58;26.25;;;;;;;38.36;12.88;100489.69;5092945;28;20492;-82
2021/04/02 10:19:54;;;;;;;50.78;26.52;;;;;;;38.23;13.36;100480.09;5091224;28;20032;-81
2021/04/02 10:22:39;;;;;;;51.53;25.83;;;;;;;35.46;15.23;100480.72;5093395;28;20432;-83
2021/04/02 10:25:24;;;;;;;52.10;24.70;;;;;;;37.86;13.57;100483.06;5091682;28;20495;-81
2021/04/02 10:28:09;;;;;;;49.88;23.98;;;;;;;38.54;12.84;100488.47;5093065;28;20489;-82
2021/04/02 10:30:54;;;;;;;53.53;25.33;;;;;;;38.34;12.63;100471.63;5100675;28;20044;-81
2021/04/02 10:33:39;;;;;;;50.80;24.92;;;;;;;37.18;13.90;100467.69;5093803;28;20048;-81
2021/04/02 10:36:24;;;;;;;49.83;26.30;;;;;;;38.79;12.80;100467.53;5093625;28;20036;-82
2021/04/02 10:39:10;;;;;;;55.67;26.33;;;;;;;38.83;12.20;100467.28;5092128;28;20032;-82
2021/04/02 10:41:55;;;;;;;56.80;26.35;;;;;;;39.95;11.80;100465.00;5094378;28;20036;-83
2021/04/02 10:44:40;;;;;;;53.15;25.92;;;;;;;42.33;9.72;100466.09;5091319;28;20039;-84
2021/04/02 10:47:25;;;;;;;60.92;26.20;;;;;;;41.76;10.39;100468.13;5097497;28;20047;-86
2021/04/02 10:50:12;;;;;;;47.13;23.80;;;;;;;38.73;11.90;100457.44;5076704;28;20036;-83
2021/04/02 10:52:58;;;;;;;52.38;24.65;;;;;;;39.51;11.88;100446.78;5090197;28;20044;-89
2021/04/02 10:55:44;;;;;;;58.63;25.50;;;;;;;43.04;9.21;100452.69;5093629;28;20044;-86
2021/04/02 10:58:31;;;;;;;50.92;23.65;;;;;;;40.33;10.68;100443.31;5092164;28;20047;-85
2021/04/02 11:01:15;;;;;;;46.67;22.15;;;;;;;38.45;11.76;100431.88;5094062;28;20400;-86
2021/04/02 11:04:00;;;;;;;43.85;22.02;;;;;;;39.79;10.89;100435.28;5097084;28;20048;-84
2021/04/02 11:06:46;;;;;;;49.38;23.55;;;;;;;42.04;10.13;100448.59;5093632;28;20487;-86
2021/04/02 11:09:30;;;;;;;48.33;22.73;;;;;;;40.77;10.34;100425.84;5076386;28;20500;-85
2021/04/02 11:12:15;;;;;;;54.38;23.48;;;;;;;42.88;8.91;100413.72;5097139;28;20032;-85
2021/04/02 11:15:00;;;;;;;49.25;24.02;;;;;;;41.67;9.67;100432.16;5095215;28;20555;-84
2021/04/02 11:17:47;;;;;;;54.67;24.58;;;;;;;40.03;10.48;100426.09;5090985;28;20411;-86
2021/04/02 11:20:32;;;;;;;57.65;26.33;;;;;;;42.06;10.00;100417.34;5090921;28;20495;-84
2021/04/02 11:23:18;;;;;;;72.75;24.25;;;;;;;42.64;9.10;100419.59;5096017;28;20024;-85
2021/04/02 11:26:03;;;;;;;60.58;24.92;;;;;;;42.23;9.20;100417.09;5092052;28;20047;-84
2021/04/02 11:28:47;;;;;;;74.88;26.58;;;;;;;42.01;8.99;100403.91;5091456;28;20056;-84
2021/04/02 11:31:33;;;;;;;48.33;23.40;;;;;;;41.21;10.00;100407.50;5093463;28;20040;-84
2021/04/02 11:34:18;;;;;;;58.28;24.48;;;;;;;41.88;9.60;100403.88;5092344;28;20036;-86
2021/04/02 11:37:04;;;;;;;52.40;22.92;;;;;;;43.02;8.73;100403.84;5083346;28;20051;-85
2021/04/02 11:39:49;;;;;;;57.28;23.75;;;;;;;43.29;8.31;100392.38;5091257;28;20039;-86
2021/04/02 11:42:34;;;;;;;62.72;24.48;;;;;;;41.15;9.73;100395.38;5094078;28;20051;-86
2021/04/02 11:45:19;;;;;;;55.03;24.10;;;;;;;41.43;10.15;100384.41;5092562;28;20067;-85
2021/04/02 11:48:05;;;;;;;55.22;22.40;;;;;;;41.66;9.39;100392.69;5096126;28;20040;-87
2021/04/02 11:50:50;;;;;;;54.72;23.67;;;;;;;41.23;9.77;100376.38;5094673;28;20048;-86
2021/04/02 11:53:35;;;;;;;53.33;24.90;;;;;;;40.61;10.01;100378.25;5092117;28;20051;-84
2021/04/02 11:56:20;;;;;;;54.03;24.80;;;;;;;41.45;9.32;100374.53;5080945;28;20040;-85
2021/04/02 11:59:05;;;;;;;57.63;25.50;;;;;;;43.27;8.39;100364.31;5094245;28;20051;-86
2021/04/02 12:01:50;;;;;;;54.13;24.25;;;;;;;41.68;9.42;100367.25;5091563;28;20043;-86
2021/04/02 12:04:35;;;;;;;60.10;25.00;;;;;;;40.54;10.33;100373.13;5094594;28;20043;-86
2021/04/02 12:07:20;;;;;;;54.72;24.02;;;;;;;43.75;8.11;100374.47;5096761;28;20044;-85
2021/04/02 12:10:06;;;;;;;58.10;24.50;;;;;;;44.51;7.66;100355.22;5092231;28;20047;-85
2021/04/02 12:12:51;;;;;;;45.67;23.15;;;;;;;45.27;7.26;100367.25;5096225;28;20059;-84
2021/04/02 12:15:36;;;;;;;48.65;23.25;;;;;;;43.54;8.50;100356.47;5094065;28;20047;-86
2021/04/02 12:18:22;;;;;;;54.03;25.08;;;;;;;42.73;8.58;100349.75;5080527;28;20126;-83
2021/04/02 12:21:07;;;;;;;56.92;24.90;;;;;;;41.82;9.32;100332.47;5101912;28;20043;-85
2021/04/02 12:23:53;;;;;;;55.67;25.75;;;;;;;43.00;8.89;100342.72;5099936;28;20051;-84
2021/04/02 12:26:38;;;;;;;58.92;23.90;;;;;;;43.37;7.92;100319.59;5097347;28;20039;-88
2021/04/02 12:29:23;;;;;;;49.80;22.92;;;;;;;43.73;8.01;100334.16;5095644;28;20039;-90
2021/04/02 12:31:54;;;;;;;55.50;22.13;;;;;;;43.74;7.92;100327.09;5103835;22;20044;-83
2021/04/02 12:34:39;;;;;;;49.95;22.33;;;;;;;40.14;9.88;100323.44;5097071;28;20071;-80
2021/04/02 12:37:24;;;;;;;43.40;18.55;;;;;;;42.80;8.35;100329.84;5093488;28;20039;-81
2021/04/02 12:40:17;;;;;;;46.53;18.50;;;;;;;43.87;7.20;100323.44;5086839;28;20051;-81
2021/04/02 12:43:03;;;;;;;44.23;20.80;;;;;;;42.67;8.64;100326.94;5088725;28;20047;-79